Time;durP1;ratioP1;P1;durP2;ratioP2;P2;SDS_P1;SDS_P2;PMS_P1;PMS_P2;Temp;Humidity;BMP_temperature;BMP_pressure;BME280_temperature;BME280_humidity;BME280_pressure;Samples;Min_cycle;Max_cycle;Signal;HPM_P1;HPM_P2
2023/01/27 00:01:26;;;;;;;15.07;9.00;;;4.30;99.90;;;;;;5014599;28;20340;-80
2023/01/27 00:03:51;;;;;;;13.93;9.20;;;4.50;99.90;;;;;;4997358;28;20045;-80
2023/01/27 00:06:17;;;;;;;14.02;9.25;;;4.00;99.90;;;;;;5013860;28;20049;-81
2023/01/27 00:08:43;;;;;;;15.23;9.60;;;4.00;99.90;;;;;;5013290;28;20076;-80
2023/01/27 00:13:57;;;;;;;17.35;9.43;;;4.60;99.90;;;;;;5004336;28;20093;-80
2023/01/27 00:16:23;;;;;;;14.75;8.55;;;4.00;99.90;;;;;;5013546;28;20503;-80
2023/01/27 00:18:49;;;;;;;12.55;7.97;;;4.00;99.90;;;;;;5013678;28;20052;-80
2023/01/27 00:26:43;;;;;;;10.98;7.65;;;4.00;99.90;;;;;;5014301;28;20141;-80
2023/01/27 00:29:08;;;;;;;11.55;7.40;;;4.00;99.90;;;;;;4997074;28;20061;-80
2023/01/27 00:34:18;;;;;;;12.23;8.07;;;4.50;99.90;;;;;;5013663;28;20099;-80
2023/01/27 00:36:44;;;;;;;11.10;7.10;;;4.00;99.90;;;;;;5013344;28;20046;-80
2023/01/27 00:39:11;;;;;;;11.63;7.00;;;4.10;99.90;;;;;;4997013;28;20394;-80
2023/01/27 00:41:38;;;;;;;8.57;6.13;;;4.00;99.90;;;;;;5013658;28;20525;-80
2023/01/27 00:44:04;;;;;;;9.40;6.30;;;4.00;99.90;;;;;;5013241;28;20041;-80
2023/01/27 00:46:30;;;;;;;10.55;6.93;;;3.90;99.90;;;;;;4997361;28;20129;-80
2023/01/27 00:48:56;;;;;;;10.75;7.28;;;4.00;99.90;;;;;;4996734;28;20049;-80
2023/01/27 00:51:22;;;;;;;11.93;7.63;;;3.90;99.90;;;;;;5013719;28;20495;-80
2023/01/27 00:53:48;;;;;;;11.88;7.20;;;4.00;99.90;;;;;;5013308;28;20052;-80
2023/01/27 00:56:14;;;;;;;10.43;6.85;;;4.00;99.90;;;;;;5013090;28;20085;-80
2023/01/27 00:58:40;;;;;;;10.40;5.82;;;3.90;99.90;;;;;;5012996;28;20046;-81
2023/01/27 01:01:09;;;;;;;10.00;6.00;;;3.90;99.90;;;;;;5012814;28;20471;-81
2023/01/27 01:03:35;;;;;;;10.55;6.15;;;4.00;99.90;;;;;;5012890;28;20046;-80
2023/01/27 01:06:03;;;;;;;11.88;5.85;;;4.00;99.90;;;;;;5013656;28;20381;-80
2023/01/27 01:08:30;;;;;;;9.15;6.45;;;4.00;99.90;;;;;;5013216;28;20054;-80
2023/01/27 01:10:56;;;;;;;8.40;5.80;;;4.00;99.90;;;;;;5013536;28;20085;-80
2023/01/27 01:13:22;;;;;;;10.25;5.38;;;4.00;99.90;;;;;;5012216;28;20100;-74
2023/01/27 01:15:47;;;;;;;8.93;5.32;;;4.00;99.90;;;;;;5013090;28;20042;-74
2023/01/27 01:18:14;;;;;;;8.00;5.35;;;4.00;99.90;;;;;;5013773;28;20096;-74
2023/01/27 01:20:42;;;;;;;7.13;4.55;;;4.00;99.90;;;;;;5013508;28;20103;-74
2023/01/27 01:23:09;;;;;;;6.85;4.25;;;4.00;99.90;;;;;;5012713;28;20053;-74
2023/01/27 01:25:36;;;;;;;8.63;4.38;;;4.30;99.90;;;;;;4996274;28;20100;-74
2023/01/27 01:28:03;;;;;;;6.32;4.07;;;4.00;99.90;;;;;;4996557;28;20057;-74
2023/01/27 01:30:29;;;;;;;7.85;4.75;;;4.00;99.90;;;;;;5013920;28;20057;-73
2023/01/27 01:32:56;;;;;;;5.68;3.63;;;4.00;99.90;;;;;;5014062;28;20056;-74
2023/01/27 01:35:26;;;;;;;5.65;3.35;;;4.10;99.90;;;;;;5013592;28;20058;-74
2023/01/27 01:37:52;;;;;;;5.38;3.45;;;4.00;99.90;;;;;;4996311;28;20093;-74
2023/01/27 01:40:18;;;;;;;5.65;3.20;;;4.20;99.90;;;;;;5012602;28;20044;-74
2023/01/27 01:42:57;;;;;;;5.20;3.28;;;4.00;99.90;;;;;;5015758;28;20438;-74
2023/01/27 01:45:35;;;;;;;4.68;3.50;;;4.00;99.90;;;;;;5017008;28;20050;-74
2023/01/27 01:48:42;;;;;;;4.95;2.72;;;4.00;99.90;;;;;;5017361;28;20116;-74
2023/01/27 01:51:09;;;;;;;5.20;3.08;;;4.10;99.90;;;;;;5032308;28;20054;-74
2023/01/27 01:53:46;;;;;;;3.88;2.58;;;4.20;99.90;;;;;;5000868;28;20042;-74
2023/01/27 01:56:20;;;;;;;5.90;3.10;;;4.10;99.90;;;;;;5016697;28;20058;-74
2023/01/27 01:58:47;;;;;;;5.28;2.67;;;4.40;99.90;;;;;;5016321;28;20042;-74
2023/01/27 02:01:14;;;;;;;3.72;2.25;;;4.10;99.90;;;;;;5015999;28;20434;-74
2023/01/27 02:03:42;;;;;;;5.00;3.00;;;4.10;99.90;;;;;;5017160;28;20054;-74
2023/01/27 02:06:09;;;;;;;4.60;2.55;;;4.10;99.90;;;;;;5017761;28;20125;-74
2023/01/27 02:08:42;;;;;;;5.20;2.72;;;4.20;99.90;;;;;;5015472;28;20487;-75
2023/01/27 02:11:09;;;;;;;4.20;2.85;;;4.10;99.90;;;;;;5017146;28;20058;-74
2023/01/27 02:13:35;;;;;;;4.32;2.53;;;4.10;99.90;;;;;;5016244;28;20053;-74
2023/01/27 02:16:02;;;;;;;4.07;2.55;;;4.10;99.90;;;;;;5000309;28;20471;-74
2023/01/27 02:18:28;;;;;;;4.22;2.53;;;4.10;99.90;;;;;;5017823;28;20068;-74
2023/01/27 02:20:54;;;;;;;4.95;3.08;;;4.20;99.90;;;;;;5016030;28;20050;-74
2023/01/27 02:23:20;;;;;;;5.30;2.33;;;4.60;99.90;;;;;;5017370;28;20042;-74
2023/01/27 02:25:58;;;;;;;5.13;2.95;;;4.10;99.90;;;;;;5015886;28;20057;-74
2023/01/27 02:28:27;;;;;;;5.35;2.55;;;4.10;99.90;;;;;;5017439;28;20133;-75
2023/01/27 02:30:52;;;;;;;3.28;2.28;;;4.10;99.90;;;;;;5017224;28;20046;-74
2023/01/27 02:33:18;;;;;;;4.80;2.50;;;4.60;99.90;;;;;;5015850;28;20053;-74
2023/01/27 02:36:18;;;;;;;5.18;3.03;;;4.10;99.90;;;;;;4999418;28;20042;-74
2023/01/27 02:38:50;;;;;;;3.65;2.33;;;4.20;99.90;;;;;;5016732;28;20058;-74
2023/01/27 02:41:19;;;;;;;6.88;2.50;;;4.20;99.90;;;;;;5016632;28;20376;-74
2023/01/27 02:43:47;;;;;;;4.65;2.60;;;4.10;99.90;;;;;;5015491;28;20081;-74
2023/01/27 02:46:13;;;;;;;3.25;2.10;;;4.60;99.90;;;;;;5017035;28;20053;-74
2023/01/27 02:48:39;;;;;;;3.03;1.80;;;4.20;99.90;;;;;;5016270;28;20046;-74
2023/01/27 02:51:04;;;;;;;3.25;2.10;;;4.30;99.90;;;;;;5015961;28;20139;-75
2023/01/27 02:53:30;;;;;;;3.60;2.35;;;4.10;99.90;;;;;;5015563;28;20041;-74
2023/01/27 02:55:56;;;;;;;3.75;2.38;;;4.10;99.90;;;;;;5015373;28;20072;-74
2023/01/27 02:58:21;;;;;;;2.72;1.70;;;4.10;99.90;;;;;;5015017;28;20052;-75
2023/01/27 03:00:47;;;;;;;3.53;1.83;;;4.30;99.90;;;;;;5016249;28;20089;-74
2023/01/27 03:03:13;;;;;;;2.90;1.95;;;4.20;99.90;;;;;;5014623;28;20085;-75
2023/01/27 03:05:39;;;;;;;2.67;1.70;;;4.10;99.90;;;;;;4998583;28;20049;-74
2023/01/27 03:08:04;;;;;;;3.75;1.90;;;4.10;99.90;;;;;;5014852;28;20049;-74
2023/01/27 03:10:30;;;;;;;2.72;1.70;;;4.20;99.90;;;;;;5015616;28;20081;-74
2023/01/27 03:12:56;;;;;;;3.15;2.08;;;4.40;99.90;;;;;;4998529;28;20502;-74
2023/01/27 03:18:11;;;;;;;2.97;1.80;;;4.10;99.90;;;;;;5001454;28;20050;-74
2023/01/27 03:20:38;;;;;;;3.38;2.03;;;4.10;99.90;;;;;;5016616;28;20053;-74
2023/01/27 03:23:04;;;;;;;2.63;1.77;;;4.10;99.90;;;;;;5014919;28;20129;-74
2023/01/27 03:25:30;;;;;;;2.58;1.75;;;4.10;99.90;;;;;;5014635;28;20133;-74
2023/01/27 03:27:56;;;;;;;2.60;1.85;;;4.30;99.90;;;;;;4998218;28;20041;-75
2023/01/27 03:30:22;;;;;;;3.40;2.15;;;4.40;99.90;;;;;;5016257;28;20049;-74
2023/01/27 03:32:47;;;;;;;3.88;2.00;;;4.40;99.90;;;;;;5014636;28;20048;-74
2023/01/27 03:35:15;;;;;;;2.85;1.90;;;4.10;99.90;;;;;;5016215;28;20406;-74
2023/01/27 03:48:40;;;;;;;2.17;1.58;;;4.00;99.90;;;;;;5014624;28;20397;-74
2023/01/27 03:51:08;;;;;;;4.30;1.63;;;4.10;99.90;;;;;;5014169;28;20046;-74
2023/01/27 03:53:34;;;;;;;2.05;1.58;;;4.10;99.90;;;;;;5014463;28;20501;-74
2023/01/27 03:56:01;;;;;;;2.50;1.65;;;4.10;99.90;;;;;;5015693;28;20046;-74
2023/01/27 03:58:29;;;;;;;2.70;2.00;;;4.10;99.90;;;;;;5014414;28;20057;-74
2023/01/27 04:01:00;;;;;;;3.42;2.38;;;4.10;99.90;;;;;;4998477;28;20037;-79
2023/01/27 04:09:07;;;;;;;2.75;2.00;;;4.40;99.90;;;;;;5014123;28;20439;-75
2023/01/27 04:14:17;;;;;;;2.40;1.48;;;4.10;99.90;;;;;;5014636;28;20057;-74
2023/01/27 04:16:43;;;;;;;3.00;1.80;;;4.10;99.90;;;;;;5014064;28;20487;-75
2023/01/27 04:19:10;;;;;;;3.10;1.80;;;4.10;99.90;;;;;;5013806;28;20049;-74
2023/01/27 04:21:37;;;;;;;2.70;2.00;;;4.50;99.90;;;;;;5013750;28;20081;-75
2023/01/27 04:24:03;;;;;;;2.45;1.77;;;4.40;99.90;;;;;;5013443;28;20046;-74
2023/01/27 04:26:33;;;;;;;3.20;2.30;;;4.10;99.90;;;;;;5013584;28;20141;-74
2023/01/27 04:29:03;;;;;;;3.67;1.92;;;4.60;99.90;;;;;;4997450;28;20060;-74
2023/01/27 04:31:29;;;;;;;2.47;1.70;;;4.10;99.90;;;;;;5013398;28;20061;-74
2023/01/27 04:33:55;;;;;;;3.25;1.60;;;4.10;99.90;;;;;;5013641;28;20053;-74
2023/01/27 04:36:21;;;;;;;2.22;1.65;;;4.10;99.90;;;;;;5014381;28;20060;-74
2023/01/27 04:38:47;;;;;;;3.20;1.70;;;4.10;99.90;;;;;;5013254;28;20120;-74
2023/01/27 04:41:13;;;;;;;2.00;1.45;;;4.10;99.90;;;;;;5013446;28;20054;-74
2023/01/27 04:43:39;;;;;;;2.47;1.70;;;4.00;99.90;;;;;;5014269;28;20562;-74
2023/01/27 04:46:04;;;;;;;2.38;1.50;;;4.30;99.90;;;;;;4996915;28;20398;-74
2023/01/27 04:48:30;;;;;;;3.35;1.30;;;4.00;99.90;;;;;;5014286;28;20099;-74
2023/01/27 04:50:56;;;;;;;2.20;1.40;;;4.00;99.90;;;;;;5013284;28;20077;-74
2023/01/27 04:53:21;;;;;;;2.22;1.42;;;4.00;99.90;;;;;;5014126;28;20054;-74
2023/01/27 04:55:48;;;;;;;2.75;1.45;;;4.10;99.90;;;;;;4996831;28;20099;-74
2023/01/27 04:58:16;;;;;;;2.42;1.38;;;3.90;99.90;;;;;;5013102;28;20048;-75
2023/01/27 05:00:45;;;;;;;3.63;1.20;;;3.90;99.90;;;;;;5013419;28;20058;-74
2023/01/27 05:03:11;;;;;;;3.08;1.40;;;3.90;99.90;;;;;;5012641;28;20088;-74
2023/01/27 05:05:37;;;;;;;2.53;1.30;;;3.90;99.90;;;;;;4996512;28;20117;-74
2023/01/27 05:08:04;;;;;;;3.50;1.48;;;3.90;99.90;;;;;;5014312;28;20554;-74
2023/01/27 05:10:30;;;;;;;2.65;1.30;;;3.90;99.90;;;;;;5012302;28;20145;-75
2023/01/27 05:12:56;;;;;;;2.00;1.10;;;3.90;99.90;;;;;;5012350;28;20503;-75
2023/01/27 05:15:22;;;;;;;3.30;1.40;;;3.80;99.90;;;;;;5013075;28;20125;-74
2023/01/27 05:17:48;;;;;;;2.17;1.30;;;3.80;99.90;;;;;;4995809;28;20100;-74
2023/01/27 05:20:13;;;;;;;2.08;1.10;;;3.80;99.90;;;;;;5012596;28;20482;-74
2023/01/27 05:22:41;;;;;;;2.45;1.38;;;3.80;99.90;;;;;;5014244;28;20046;-74
2023/01/27 05:25:07;;;;;;;2.95;1.30;;;4.20;99.90;;;;;;4996724;28;20546;-75
2023/01/27 05:27:33;;;;;;;2.47;1.40;;;3.80;99.90;;;;;;5013403;28;20388;-73
2023/01/27 05:29:58;;;;;;;2.85;1.38;;;3.80;99.90;;;;;;5012700;28;20133;-74
2023/01/27 05:32:24;;;;;;;2.22;1.20;;;4.00;99.90;;;;;;4997047;28;20085;-74
2023/01/27 05:34:50;;;;;;;2.33;1.70;;;3.80;99.90;;;;;;5012945;28;20042;-74
2023/01/27 05:37:15;;;;;;;2.35;1.42;;;3.90;99.90;;;;;;5014374;28;20050;-74
2023/01/27 05:39:41;;;;;;;1.75;1.10;;;3.80;99.90;;;;;;5013253;28;20049;-75
2023/01/27 05:42:07;;;;;;;3.50;1.50;;;3.80;99.90;;;;;;5012561;28;20049;-74
2023/01/27 05:44:32;;;;;;;2.10;1.30;;;3.90;99.90;;;;;;5013251;28;20366;-74
2023/01/27 05:46:58;;;;;;;3.00;1.30;;;3.80;99.90;;;;;;5013524;28;20508;-74
2023/01/27 05:49:24;;;;;;;2.03;1.20;;;3.80;99.90;;;;;;5013543;28;20050;-74
2023/01/27 05:51:49;;;;;;;2.53;1.60;;;3.80;99.90;;;;;;5012421;28;20061;-74
2023/01/27 05:54:15;;;;;;;3.85;2.35;;;3.90;99.90;;;;;;5013022;28;20046;-74
2023/01/27 05:56:41;;;;;;;4.68;1.50;;;3.80;99.90;;;;;;5012462;28;20520;-74
2023/01/27 05:59:07;;;;;;;3.35;1.35;;;3.70;99.90;;;;;;5013938;28;20374;-74
2023/01/27 06:01:34;;;;;;;2.58;1.20;;;3.90;99.90;;;;;;5012138;28;20104;-74
2023/01/27 06:04:00;;;;;;;3.35;1.50;;;3.70;99.90;;;;;;4995929;28;20046;-74
2023/01/27 06:06:28;;;;;;;2.58;1.38;;;3.70;99.90;;;;;;4996022;28;20050;-76
2023/01/27 06:08:54;;;;;;;4.15;1.60;;;3.70;99.90;;;;;;5013029;28;20097;-74
2023/01/27 06:11:21;;;;;;;3.45;1.50;;;4.00;99.90;;;;;;5013131;28;20085;-74
2023/01/27 06:13:47;;;;;;;2.90;1.55;;;3.70;99.90;;;;;;5012313;28;20049;-75
2023/01/27 06:16:16;;;;;;;3.83;1.52;;;3.60;99.90;;;;;;5013308;28;20046;-74
2023/01/27 06:18:43;;;;;;;3.42;1.80;;;3.90;99.90;;;;;;5012498;28;20049;-74
2023/01/27 06:21:10;;;;;;;2.92;1.60;;;3.60;99.90;;;;;;4980653;28;20045;-75
2023/01/27 06:23:37;;;;;;;3.67;1.60;;;4.00;99.90;;;;;;5011668;28;20045;-74
2023/01/27 06:26:11;;;;;;;2.38;1.70;;;3.80;99.90;;;;;;5013163;28;20050;-74
2023/01/27 06:28:38;;;;;;;2.72;1.73;;;3.60;99.90;;;;;;5015547;28;20442;-74
2023/01/27 06:31:09;;;;;;;2.85;1.40;;;3.60;99.90;;;;;;5015795;28;20049;-74
2023/01/27 06:33:35;;;;;;;3.20;1.40;;;3.60;99.90;;;;;;5015881;28;20132;-75
2023/01/27 06:36:06;;;;;;;3.40;1.70;;;3.70;99.90;;;;;;5017435;28;20042;-74
2023/01/27 06:38:32;;;;;;;4.35;2.05;;;3.60;99.90;;;;;;5017204;28;20470;-75
2023/01/27 06:40:58;;;;;;;3.25;1.80;;;3.60;99.90;;;;;;5016333;28;20086;-74
2023/01/27 06:43:24;;;;;;;2.83;1.50;;;3.60;99.90;;;;;;5015591;28;20052;-74
2023/01/27 06:45:50;;;;;;;2.97;1.70;;;3.70;99.90;;;;;;5016517;28;20472;-75
2023/01/27 06:48:16;;;;;;;3.67;1.70;;;3.60;99.90;;;;;;4999447;28;20060;-74
2023/01/27 06:50:42;;;;;;;3.78;1.70;;;3.60;99.90;;;;;;5015961;28;20052;-74
2023/01/27 06:53:08;;;;;;;3.15;1.70;;;3.50;99.90;;;;;;5016361;28;20049;-74
2023/01/27 06:55:40;;;;;;;2.55;1.60;;;3.50;99.90;;;;;;5016148;28;20390;-75
2023/01/27 06:58:09;;;;;;;4.07;1.73;;;3.50;99.90;;;;;;4999218;28;20057;-75
2023/01/27 07:00:35;;;;;;;5.25;2.03;;;3.50;99.90;;;;;;5015326;28;20061;-74
2023/01/27 07:03:02;;;;;;;2.75;1.60;;;3.50;99.90;;;;;;5016141;28;20069;-74
2023/01/27 07:05:27;;;;;;;3.90;1.70;;;3.50;99.90;;;;;;5016619;28;20077;-75
2023/01/27 07:07:53;;;;;;;3.72;1.83;;;3.50;99.90;;;;;;4999459;28;20044;-74
2023/01/27 07:10:19;;;;;;;3.72;1.80;;;3.00;99.90;;;;;;5014480;28;20074;-70
2023/01/27 07:12:45;;;;;;;3.67;1.88;;;3.50;99.90;;;;;;5016019;28;20089;-70
2023/01/27 07:15:11;;;;;;;2.63;1.98;;;3.50;99.90;;;;;;5016305;28;20046;-70
2023/01/27 07:17:37;;;;;;;4.32;1.98;;;3.40;99.90;;;;;;5015963;28;20050;-70
2023/01/27 07:20:04;;;;;;;3.35;1.90;;;3.50;99.90;;;;;;5015893;28;20057;-71
2023/01/27 07:22:29;;;;;;;4.35;2.00;;;3.40;99.90;;;;;;5014654;28;20037;-71
2023/01/27 07:24:55;;;;;;;3.40;2.00;;;3.50;99.90;;;;;;5015805;28;20107;-70
2023/01/27 07:27:24;;;;;;;4.80;2.03;;;3.40;99.90;;;;;;5015808;28;20053;-71
2023/01/27 07:29:50;;;;;;;4.65;2.13;;;3.40;99.90;;;;;;5015694;28;20394;-70
2023/01/27 07:32:16;;;;;;;2.80;2.03;;;3.40;99.90;;;;;;5015717;28;20429;-70
2023/01/27 07:34:41;;;;;;;3.33;1.90;;;3.50;99.90;;;;;;5013692;28;20045;-70
2023/01/27 07:37:07;;;;;;;4.45;2.10;;;3.60;99.90;;;;;;4997590;28;20072;-70
2023/01/27 07:39:35;;;;;;;4.50;1.98;;;3.50;99.90;;;;;;5013905;28;20046;-70
2023/01/27 07:42:01;;;;;;;3.92;1.98;;;3.50;99.90;;;;;;5014836;28;20588;-72
2023/01/27 07:44:27;;;;;;;3.70;2.00;;;3.50;99.90;;;;;;5015205;28;20136;-70
2023/01/27 07:46:53;;;;;;;4.28;2.28;;;3.80;99.90;;;;;;5014082;28;20057;-70
2023/01/27 07:49:18;;;;;;;2.80;1.85;;;3.40;99.90;;;;;;5015741;28;20041;-70
2023/01/27 07:51:44;;;;;;;3.38;2.40;;;3.50;99.90;;;;;;5014362;28;20073;-71
2023/01/27 07:54:11;;;;;;;5.40;2.13;;;3.50;99.90;;;;;;4997962;28;20048;-71
2023/01/27 07:56:37;;;;;;;3.13;2.20;;;3.60;99.90;;;;;;5014130;28;20053;-70
2023/01/27 07:59:03;;;;;;;3.40;2.15;;;3.50;99.90;;;;;;5015186;28;20061;-70
2023/01/27 08:01:29;;;;;;;5.97;2.65;;;3.80;99.90;;;;;;5014996;28;20046;-71
2023/01/27 08:03:54;;;;;;;4.25;2.38;;;3.50;99.90;;;;;;5013778;28;20069;-71
2023/01/27 08:06:20;;;;;;;3.70;2.30;;;3.50;99.90;;;;;;5014109;28;20046;-71
2023/01/27 08:08:47;;;;;;;3.97;2.80;;;3.50;99.90;;;;;;5015009;28;20046;-70
2023/01/27 08:11:14;;;;;;;3.85;2.20;;;3.60;99.90;;;;;;5014971;28;20050;-71
2023/01/27 08:13:40;;;;;;;3.97;2.30;;;3.60;99.90;;;;;;5013895;28;20053;-70
2023/01/27 08:16:10;;;;;;;4.68;2.80;;;3.60;99.90;;;;;;5014699;28;20536;-70
2023/01/27 08:18:36;;;;;;;4.07;2.63;;;3.60;99.90;;;;;;5015236;28;20100;-71
2023/01/27 08:21:04;;;;;;;5.15;3.10;;;3.60;99.90;;;;;;5015138;28;20498;-73
2023/01/27 08:23:31;;;;;;;5.82;2.75;;;3.60;99.90;;;;;;5015083;28;20081;-74
2023/01/27 08:26:00;;;;;;;4.45;2.70;;;3.70;99.90;;;;;;5014701;28;20364;-72
2023/01/27 08:28:27;;;;;;;5.50;2.92;;;3.60;99.90;;;;;;5013556;28;20413;-77
2023/01/27 08:30:53;;;;;;;6.68;2.95;;;3.70;99.90;;;;;;5013101;28;20088;-77
2023/01/27 08:33:22;;;;;;;6.70;3.20;;;3.70;99.90;;;;;;5013402;28;20497;-77
2023/01/27 08:35:49;;;;;;;3.42;2.30;;;3.70;99.90;;;;;;5014180;28;20061;-78
2023/01/27 08:38:17;;;;;;;5.72;3.67;;;4.10;99.90;;;;;;5014466;28;20192;-78
2023/01/27 08:40:45;;;;;;;6.47;3.28;;;3.70;99.90;;;;;;4997177;28;20052;-78
2023/01/27 08:43:12;;;;;;;4.35;2.67;;;3.70;99.90;;;;;;5013324;28;20050;-77
2023/01/27 08:45:37;;;;;;;4.65;2.67;;;3.70;99.90;;;;;;5014227;28;20063;-76
2023/01/27 08:48:07;;;;;;;6.07;2.83;;;3.70;99.90;;;;;;5014554;28;20050;-75
2023/01/27 08:50:33;;;;;;;4.25;2.97;;;3.80;99.90;;;;;;5012983;28;20118;-75
2023/01/27 08:52:59;;;;;;;5.72;3.38;;;3.90;99.90;;;;;;5014188;28;20033;-76
2023/01/27 08:55:30;;;;;;;4.15;2.92;;;3.80;99.90;;;;;;5014102;28;20096;-76
2023/01/27 08:57:56;;;;;;;5.82;2.67;;;3.80;99.90;;;;;;5014209;28;20041;-77
2023/01/27 09:00:22;;;;;;;5.82;3.05;;;4.30;99.90;;;;;;5012950;28;20064;-78
2023/01/27 09:02:51;;;;;;;4.35;3.17;;;3.90;99.90;;;;;;5014546;28;20148;-81
2023/01/27 09:05:18;;;;;;;4.63;2.67;;;3.90;99.90;;;;;;5013725;28;20053;-76
2023/01/27 09:07:45;;;;;;;6.03;2.90;;;3.90;99.90;;;;;;5014004;28;20085;-77
2023/01/27 09:10:12;;;;;;;4.20;3.22;;;4.00;99.90;;;;;;5012677;28;20544;-76
2023/01/27 09:12:37;;;;;;;4.55;3.20;;;4.00;99.90;;;;;;5013188;28;20504;-83
2023/01/27 09:15:03;;;;;;;5.32;3.22;;;4.00;99.90;;;;;;5012767;28;20050;-78
2023/01/27 09:17:29;;;;;;;5.40;3.10;;;4.00;99.90;;;;;;5013662;28;20057;-79
2023/01/27 09:19:55;;;;;;;4.10;2.85;;;4.20;99.90;;;;;;4996550;28;20390;-77
2023/01/27 09:22:20;;;;;;;5.15;2.95;;;4.10;99.90;;;;;;5012999;28;20374;-77
2023/01/27 09:24:46;;;;;;;4.13;3.00;;;4.10;99.90;;;;;;5013724;28;20045;-78
2023/01/27 09:27:12;;;;;;;4.28;3.10;;;4.10;99.90;;;;;;5013823;28;20061;-78
2023/01/27 09:29:38;;;;;;;3.63;2.80;;;4.10;99.90;;;;;;4996351;28;20052;-78
2023/01/27 09:32:04;;;;;;;5.38;3.10;;;4.00;99.90;;;;;;5012272;28;20054;-79
2023/01/27 09:34:30;;;;;;;4.43;2.83;;;4.00;99.90;;;;;;5014042;28;20053;-77
2023/01/27 09:37:00;;;;;;;4.50;2.90;;;4.00;99.90;;;;;;5012567;28;20041;-79
2023/01/27 09:39:28;;;;;;;6.55;3.00;;;4.00;99.90;;;;;;4996467;28;20056;-78
2023/01/27 09:41:53;;;;;;;5.43;3.33;;;4.00;99.90;;;;;;5012994;28;20129;-78
2023/01/27 09:44:25;;;;;;;4.05;2.53;;;4.00;99.90;;;;;;4996399;28;20375;-76
2023/01/27 09:47:04;;;;;;;3.83;2.70;;;4.50;99.90;;;;;;5012404;28;20057;-76
2023/01/27 09:49:38;;;;;;;4.38;2.90;;;3.90;99.90;;;;;;5012419;28;20056;-81
2023/01/27 09:52:35;;;;;;;3.28;2.50;;;4.00;99.90;;;;;;5012489;28;20045;-76
2023/01/27 09:55:22;;;;;;;4.97;2.38;;;4.00;99.90;;;;;;5011913;28;20057;-76
2023/01/27 09:58:04;;;;;;;;;;;4.00;99.90;;;;;;5012344;28;20498;-79
2023/01/27 10:00:53;;;;;;;3.97;2.50;;;3.90;99.90;;;;;;5012458;28;19972;-78
2023/01/27 10:03:25;;;;;;;3.35;2.17;;;3.90;99.90;;;;;;5015476;28;20041;-77
2023/01/27 10:06:26;;;;;;;3.95;2.38;;;4.00;99.90;;;;;;4999647;28;20049;-76
2023/01/27 10:09:18;;;;;;;3.50;2.17;;;4.00;99.90;;;;;;5014995;28;20065;-78
2023/01/27 10:12:20;;;;;;;3.80;2.03;;;4.00;99.90;;;;;;5015839;28;20140;-77
2023/01/27 10:15:13;;;;;;;3.83;1.92;;;4.00;99.90;;;;;;5016048;28;20100;-75
2023/01/27 10:18:10;;;;;;;4.15;2.10;;;4.00;99.90;;;;;;5017332;28;20100;-75
2023/01/27 10:20:43;;;;;;;2.83;1.80;;;4.10;99.90;;;;;;5002045;28;20104;-75
2023/01/27 10:23:21;;;;;;;3.63;1.95;;;4.00;99.90;;;;;;5017189;28;20096;-75
2023/01/27 10:25:46;;;;;;;4.55;2.30;;;4.00;99.90;;;;;;5016932;28;20378;-75
2023/01/27 10:28:21;;;;;;;4.88;2.40;;;4.10;99.90;;;;;;5016722;28;20060;-77
2023/01/27 10:31:16;;;;;;;3.33;2.00;;;4.10;99.90;;;;;;5015829;28;20049;-78
2023/01/27 10:33:49;;;;;;;3.38;1.90;;;4.10;99.90;;;;;;4999931;28;20053;-77
2023/01/27 10:36:45;;;;;;;3.40;2.28;;;4.10;99.90;;;;;;5015592;28;20049;-76
2023/01/27 10:39:35;;;;;;;3.25;1.92;;;4.10;99.90;;;;;;5015342;28;20053;-78
2023/01/27 10:42:21;;;;;;;2.83;1.80;;;4.10;99.90;;;;;;5016271;28;20072;-78
2023/01/27 10:45:17;;;;;;;4.53;3.80;;;4.10;99.90;;;;;;5015707;28;20066;-78
2023/01/27 10:48:15;;;;;;;3.50;2.00;;;4.20;99.90;;;;;;5015486;28;20050;-79
2023/01/27 10:50:54;;;;;;;2.20;1.50;;;4.20;99.90;;;;;;5015379;28;20066;-78
2023/01/27 10:53:37;;;;;;;3.42;1.83;;;4.20;99.90;;;;;;5015173;28;20049;-77
2023/01/27 10:56:13;;;;;;;3.30;1.92;;;4.50;99.90;;;;;;5015245;28;20396;-77
2023/01/27 10:58:57;;;;;;;;;;;4.20;99.90;;;;;;5016003;28;20140;-78
2023/01/27 11:01:52;;;;;;;3.70;2.13;;;4.20;99.90;;;;;;5015247;28;19921;-80
2023/01/27 11:04:35;;;;;;;6.88;5.82;;;4.20;99.90;;;;;;5014686;28;20050;-79
2023/01/27 11:07:04;;;;;;;8.63;5.38;;;4.20;99.90;;;;;;4999601;28;20062;-77
2023/01/27 11:09:36;;;;;;;3.60;2.80;;;4.30;99.90;;;;;;5015038;28;20046;-78
2023/01/27 11:12:11;;;;;;;22.60;15.00;;;4.30;99.90;;;;;;5014784;28;20060;-79
2023/01/27 11:14:43;;;;;;;5.25;3.15;;;4.40;99.90;;;;;;5013739;28;20042;-79
2023/01/27 11:17:28;;;;;;;4.13;2.88;;;4.40;99.90;;;;;;5015247;28;20112;-79
2023/01/27 11:19:57;;;;;;;3.60;1.98;;;4.40;99.90;;;;;;4998094;28;20561;-79
2023/01/27 11:22:28;;;;;;;2.80;1.52;;;4.40;99.90;;;;;;4997900;28;20081;-78
2023/01/27 11:25:15;;;;;;;3.20;1.80;;;4.70;99.90;;;;;;4998487;28;20482;-77
2023/01/27 11:28:02;;;;;;;2.67;1.85;;;4.50;99.90;;;;;;5015952;28;20054;-77
2023/01/27 11:30:40;;;;;;;3.17;1.73;;;4.60;99.90;;;;;;5015447;28;20041;-77
2023/01/27 11:33:18;;;;;;;2.20;1.50;;;4.60;99.90;;;;;;5015179;28;20085;-76
2023/01/27 11:35:44;;;;;;;3.05;1.90;;;4.60;99.90;;;;;;5015385;28;20050;-76
2023/01/27 11:38:15;;;;;;;2.85;1.70;;;4.70;99.90;;;;;;5014259;28;20446;-76
2023/01/27 11:40:42;;;;;;;2.78;2.20;;;4.90;99.90;;;;;;5014733;28;20562;-76
2023/01/27 11:43:14;;;;;;;2.90;1.80;;;4.60;99.90;;;;;;5014516;28;20486;-77
2023/01/27 11:45:40;;;;;;;2.70;1.90;;;4.60;99.90;;;;;;5015784;28;20052;-77
2023/01/27 11:48:13;;;;;;;2.72;1.98;;;4.60;99.90;;;;;;5015912;28;20061;-76
2023/01/27 11:50:41;;;;;;;3.55;1.83;;;4.70;99.90;;;;;;5014339;28;20038;-77
2023/01/27 11:53:15;;;;;;;2.92;1.58;;;4.70;99.90;;;;;;5014178;28;20057;-77
2023/01/27 11:55:52;;;;;;;2.67;1.30;;;4.70;99.90;;;;;;5013772;28;20525;-76
2023/01/27 11:58:21;;;;;;;2.28;1.50;;;4.70;99.90;;;;;;5014939;28;20101;-76
2023/01/27 12:00:53;;;;;;;2.75;1.63;;;4.70;99.90;;;;;;4997301;28;20045;-76
2023/01/27 12:03:44;;;;;;;2.45;1.25;;;4.60;99.90;;;;;;5014051;28;20053;-76
2023/01/27 12:06:34;;;;;;;4.70;3.47;;;4.60;99.90;;;;;;5014159;28;20092;-79
2023/01/27 12:09:00;;;;;;;8.05;5.53;;;4.60;99.90;;;;;;5014489;28;20058;-77
2023/01/27 12:11:28;;;;;;;10.00;6.30;;;4.60;99.90;;;;;;5014777;28;20092;-77
2023/01/27 12:14:03;;;;;;;3.33;1.65;;;4.60;99.90;;;;;;5014356;28;20410;-76
2023/01/27 12:16:50;;;;;;;1.75;1.35;;;4.80;99.90;;;;;;5014752;28;20045;-76
2023/01/27 12:19:31;;;;;;;2.20;1.48;;;4.60;99.90;;;;;;5014365;28;20042;-77
2023/01/27 12:22:00;;;;;;;2.25;1.35;;;4.60;99.90;;;;;;5014364;28;20049;-76
2023/01/27 12:24:37;;;;;;;2.40;1.65;;;4.50;99.90;;;;;;5014444;28;20088;-76
2023/01/27 12:27:04;;;;;;;2.00;1.30;;;4.50;99.90;;;;;;5013956;28;20054;-75
2023/01/27 12:29:47;;;;;;;2.20;1.38;;;4.60;99.90;;;;;;4996966;28;20046;-77
2023/01/27 12:32:17;;;;;;;2.70;1.55;;;4.50;99.90;;;;;;5014363;28;20046;-77
2023/01/27 12:34:50;;;;;;;3.65;1.30;;;4.50;99.90;;;;;;5014580;28;20073;-75
2023/01/27 12:37:28;;;;;;;2.10;1.30;;;4.50;99.90;;;;;;5013629;28;20072;-74
2023/01/27 12:39:59;;;;;;;2.05;1.23;;;4.50;99.90;;;;;;5013693;28;20062;-76
2023/01/27 12:42:52;;;;;;;2.40;1.30;;;4.50;99.90;;;;;;5013933;28;20443;-75
2023/01/27 12:45:25;;;;;;;3.00;1.77;;;4.50;99.90;;;;;;5009318;28;20116;-75
2023/01/27 12:48:08;;;;;;;1.77;1.10;;;4.50;99.90;;;;;;5013177;28;20103;-76
2023/01/27 12:50:38;;;;;;;1.83;1.00;;;4.50;99.90;;;;;;5014267;28;20058;-75
2023/01/27 12:53:15;;;;;;;1.90;1.20;;;4.50;99.90;;;;;;5013205;28;20533;-75
2023/01/27 12:55:45;;;;;;;;;;;4.50;99.90;;;;;;5013872;28;20385;-74
2023/01/27 12:58:38;;;;;;;1.90;1.20;;;4.40;99.90;;;;;;5014909;28;19932;-77
2023/01/27 13:01:23;;;;;;;2.00;1.33;;;4.40;99.90;;;;;;5013373;28;20056;-77
2023/01/27 13:03:54;;;;;;;2.10;1.40;;;4.40;99.90;;;;;;5013475;28;20046;-75
2023/01/27 13:06:29;;;;;;;2.38;1.38;;;4.40;99.90;;;;;;5012421;28;20050;-76
2023/01/27 13:08:58;;;;;;;3.15;1.50;;;4.80;99.90;;;;;;5012793;28;20089;-77
2023/01/27 13:11:36;;;;;;;2.47;1.00;;;4.40;99.90;;;;;;5012527;28;20111;-77
2023/01/27 13:14:05;;;;;;;2.08;1.27;;;4.50;99.90;;;;;;5013120;28;20498;-76
2023/01/27 13:16:31;;;;;;;1.88;1.10;;;4.50;99.90;;;;;;5012786;28;20062;-76
2023/01/27 13:18:59;;;;;;;1.92;1.17;;;4.50;99.90;;;;;;5014161;28;20048;-78
2023/01/27 13:21:34;;;;;;;1.88;0.85;;;4.50;99.90;;;;;;5012628;28;20042;-74
2023/01/27 13:24:06;;;;;;;1.80;1.10;;;4.50;99.90;;;;;;5012547;28;20132;-74
2023/01/27 13:26:36;;;;;;;1.80;1.10;;;4.40;99.90;;;;;;5013300;28;20480;-77
2023/01/27 13:29:08;;;;;;;1.85;1.10;;;4.50;99.90;;;;;;5013686;28;20050;-75
2023/01/27 13:31:36;;;;;;;2.70;1.83;;;4.50;99.90;;;;;;5013001;28;20133;-77
2023/01/27 13:34:12;;;;;;;2.95;1.30;;;4.50;99.90;;;;;;5012452;28;20061;-77
2023/01/27 13:36:41;;;;;;;;;;;4.40;99.90;;;;;;5014446;28;20049;-79
2023/01/27 13:39:23;;;;;;;1.80;1.08;;;4.40;99.90;;;;;;5012061;28;19921;-77
2023/01/27 13:42:03;;;;;;;1.90;1.13;;;4.30;99.90;;;;;;5013370;28;20510;-77
2023/01/27 13:44:43;;;;;;;2.25;1.15;;;4.30;99.90;;;;;;5012349;28;20049;-76
2023/01/27 13:47:34;;;;;;;2.10;0.93;;;4.30;99.90;;;;;;5012724;28;20052;-78